Time,TemperatureF,DewpointF,PressureIn,WindDirection,WindDirectionDegrees,WindSpeedMPH,WindSpeedGustMPH,Humidity,HourlyPrecipIn,Conditions,Clouds,dailyrainin,SoftwareType,DateUTC
2013-01-25 00:01:00,38.0,33.0,-100.00,South,180,10.0,16.0,81,-99.99,,,-99.99,,2013-01-25 08:01:00,
2013-01-25 00:11:00,38.0,33.0,-100.00,South,180,7.0,12.0,81,-99.99,,,-99.99,,2013-01-25 08:11:00,
2013-01-25 00:21:00,38.0,33.0,-100.00,South,180,7.0,12.0,81,-99.99,,,-99.99,,2013-01-25 08:21:00,
2013-01-25 00:32:00,39.0,33.0,-100.00,South,180,8.0,11.0,81,-99.99,,,-99.99,,2013-01-25 08:32:00,
2013-01-25 00:41:00,38.0,32.0,-100.00,South,180,7.0,11.0,79,-99.99,,,-99.99,,2013-01-25 08:41:00,
2013-01-25 00:52:00,38.0,32.0,-100.00,South,180,7.0,11.0,79,-99.99,,,-99.99,,2013-01-25 08:52:00,
2013-01-25 01:01:00,38.0,17.0,-100.00,SW,225,6.0,12.0,42,-99.99,,,-99.99,,2013-01-25 09:01:00,
2013-01-25 01:11:00,39.0,33.0,-100.00,South,180,7.0,11.0,81,-99.99,,,-99.99,,2013-01-25 09:11:00,
2013-01-25 01:21:00,39.0,33.0,-100.00,South,180,7.0,11.0,81,-99.99,,,-99.99,,2013-01-25 09:21:00,
2013-01-25 01:31:00,39.0,32.0,-100.00,South,180,7.0,11.0,76,-99.99,,,-99.99,,2013-01-25 09:31:00,
2013-01-25 01:41:00,39.0,26.0,-100.00,SW,225,7.0,12.0,59,-99.99,,,-99.99,,2013-01-25 09:41:00,
2013-01-25 01:51:00,39.0,26.0,-100.00,SW,225,7.0,12.0,59,-99.99,,,-99.99,,2013-01-25 09:51:00,
2013-01-25 02:01:00,39.0,18.0,-100.00,SW,225,9.0,15.0,42,-99.99,,,-99.99,,2013-01-25 10:01:00,
2013-01-25 02:11:00,39.0,33.0,-100.00,South,180,9.0,14.0,80,-99.99,,,-99.99,,2013-01-25 10:11:00,
2013-01-25 02:21:00,39.0,33.0,-100.00,South,180,9.0,14.0,80,-99.99,,,-99.99,,2013-01-25 10:21:00,
2013-01-25 02:31:00,39.0,19.0,-100.00,South,180,9.0,12.0,43,-99.99,,,-99.99,,2013-01-25 10:31:00,
2013-01-25 02:42:00,38.0,29.0,-100.00,South,180,8.0,14.0,69,-99.99,,,-99.99,,2013-01-25 10:42:00,
2013-01-25 02:51:00,38.0,29.0,-100.00,South,180,8.0,14.0,69,-99.99,,,-99.99,,2013-01-25 10:51:00,
2013-01-25 03:02:00,39.0,34.0,-100.00,South,180,9.0,12.0,82,-99.99,,,-99.99,,2013-01-25 11:02:00,
2013-01-25 03:11:00,38.0,34.0,-100.00,South,180,9.0,11.0,85,-99.99,,,-99.99,,2013-01-25 11:11:00,
2013-01-25 03:22:00,38.0,34.0,-100.00,South,180,9.0,11.0,85,-99.99,,,-99.99,,2013-01-25 11:22:00,
2013-01-25 03:32:00,38.0,34.0,-100.00,South,180,9.0,11.0,85,-99.99,,,-99.99,,2013-01-25 11:32:00,
2013-01-25 03:42:00,38.0,34.0,-100.00,South,180,9.0,12.0,84,-99.99,,,-99.99,,2013-01-25 11:42:00,
2013-01-25 03:52:00,38.0,34.0,-100.00,South,180,8.0,11.0,83,-99.99,,,-99.99,,2013-01-25 11:52:00,
2013-01-25 04:02:00,38.0,34.0,-100.00,South,180,8.0,11.0,83,-99.99,,,-99.99,,2013-01-25 12:02:00,
2013-01-25 04:11:00,38.0,21.0,-100.00,South,180,8.0,12.0,50,-99.99,,,-99.99,,2013-01-25 12:11:00,
2013-01-25 04:21:00,38.0,21.0,-100.00,South,180,8.0,12.0,50,-99.99,,,-99.99,,2013-01-25 12:21:00,
2013-01-25 04:42:00,37.0,34.0,-100.00,South,180,8.0,12.0,90,-99.99,,,-99.99,,2013-01-25 12:42:00,
2013-01-25 04:53:00,37.0,34.0,-100.00,South,180,8.0,12.0,90,-99.99,,,-99.99,,2013-01-25 12:53:00,
2013-01-25 05:02:00,37.0,35.0,-100.00,South,180,6.0,10.0,91,-99.99,,,-99.99,,2013-01-25 13:02:00,
2013-01-25 05:11:00,37.0,35.0,-100.00,South,180,9.0,12.0,91,-99.99,,,-99.99,,2013-01-25 13:11:00,
2013-01-25 05:22:00,37.0,35.0,-100.00,South,180,9.0,12.0,91,-99.99,,,-99.99,,2013-01-25 13:22:00,
2013-01-25 05:32:00,37.0,35.0,-100.00,South,180,9.0,12.0,91,-99.99,,,-99.99,,2013-01-25 13:32:00,
2013-01-25 05:42:00,38.0,35.0,-100.00,South,180,9.0,14.0,90,-99.99,,,-99.99,,2013-01-25 13:42:00,
2013-01-25 05:52:00,38.0,35.0,-100.00,South,180,9.0,14.0,90,-99.99,,,-99.99,,2013-01-25 13:52:00,
2013-01-25 06:02:00,37.0,22.0,-100.00,South,180,11.0,13.0,54,-99.99,,,-99.99,,2013-01-25 14:02:00,
2013-01-25 06:12:00,37.0,35.0,-100.00,South,180,10.0,13.0,92,-99.99,,,-99.99,,2013-01-25 14:12:00,
2013-01-25 06:22:00,37.0,35.0,-100.00,South,180,10.0,13.0,92,-99.99,,,-99.99,,2013-01-25 14:22:00,
2013-01-25 06:32:00,37.0,35.0,-100.00,SW,225,9.0,13.0,92,-99.99,,,-99.99,,2013-01-25 14:32:00,
2013-01-25 06:42:00,38.0,35.0,-100.00,South,180,9.0,12.0,91,-99.99,,,-99.99,,2013-01-25 14:42:00,
2013-01-25 06:52:00,38.0,35.0,-100.00,South,180,9.0,12.0,91,-99.99,,,-99.99,,2013-01-25 14:52:00,
2013-01-25 07:02:00,37.0,35.0,-100.00,South,180,10.0,14.0,91,-99.99,,,-99.99,,2013-01-25 15:02:00,
2013-01-25 07:12:00,37.0,35.0,-100.00,South,180,11.0,14.0,92,-99.99,,,-99.99,,2013-01-25 15:12:00,
2013-01-25 07:22:00,37.0,35.0,-100.00,South,180,11.0,14.0,92,-99.99,,,-99.99,,2013-01-25 15:22:00,
2013-01-25 07:32:00,37.0,35.0,-100.00,South,180,11.0,14.0,91,-99.99,,,-99.99,,2013-01-25 15:32:00,
2013-01-25 07:42:00,37.0,35.0,-100.00,South,180,11.0,14.0,92,-99.99,,,-99.99,,2013-01-25 15:42:00,
2013-01-25 07:52:00,37.0,35.0,-100.00,South,180,11.0,14.0,92,-99.99,,,-99.99,,2013-01-25 15:52:00,
2013-01-25 08:03:00,37.0,35.0,-100.00,South,180,10.0,14.0,92,-99.99,,,-99.99,,2013-01-25 16:03:00,
2013-01-25 08:11:00,37.0,35.0,-100.00,South,180,11.0,14.0,91,-99.99,,,-99.99,,2013-01-25 16:11:00,
2013-01-25 08:22:00,37.0,35.0,-100.00,South,180,11.0,14.0,91,-99.99,,,-99.99,,2013-01-25 16:22:00,
2013-01-25 08:32:00,37.0,35.0,-100.00,South,180,11.0,13.0,92,-99.99,,,-99.99,,2013-01-25 16:32:00,
2013-01-25 08:42:00,38.0,35.0,-100.00,SW,225,11.0,14.0,91,-99.99,,,-99.99,,2013-01-25 16:42:00,
2013-01-25 08:52:00,38.0,35.0,-100.00,SW,225,11.0,14.0,91,-99.99,,,-99.99,,2013-01-25 16:52:00,
2013-01-25 09:02:00,37.0,35.0,-100.00,South,180,8.0,12.0,92,-99.99,,,-99.99,,2013-01-25 17:02:00,
2013-01-25 09:11:00,38.0,35.0,-100.00,South,180,12.0,14.0,91,-99.99,,,-99.99,,2013-01-25 17:11:00,
2013-01-25 09:22:00,38.0,35.0,-100.00,South,180,12.0,14.0,91,-99.99,,,-99.99,,2013-01-25 17:22:00,
2013-01-25 09:32:00,38.0,35.0,-100.00,SW,225,9.0,17.0,91,-99.99,,,-99.99,,2013-01-25 17:32:00,
2013-01-25 09:42:00,37.0,35.0,-100.00,South,180,10.0,14.0,92,-99.99,,,-99.99,,2013-01-25 17:42:00,
2013-01-25 09:52:00,37.0,35.0,-100.00,South,180,10.0,14.0,92,-99.99,,,-99.99,,2013-01-25 17:52:00,
2013-01-25 10:02:00,38.0,35.0,-100.00,South,180,10.0,16.0,91,-99.99,,,-99.99,,2013-01-25 18:02:00,
2013-01-25 10:11:00,38.0,35.0,-100.00,South,180,12.0,15.0,89,-99.99,,,-99.99,,2013-01-25 18:11:00,
2013-01-25 10:23:00,38.0,35.0,-100.00,South,180,12.0,15.0,89,-99.99,,,-99.99,,2013-01-25 18:23:00,
2013-01-25 10:32:00,38.0,35.0,-100.00,South,180,12.0,18.0,89,-99.99,,,-99.99,,2013-01-25 18:32:00,
2013-01-25 10:42:00,38.0,35.0,-100.00,South,180,11.0,21.0,90,-99.99,,,-99.99,,2013-01-25 18:42:00,
2013-01-25 10:52:00,38.0,35.0,-100.00,South,180,11.0,21.0,90,-99.99,,,-99.99,,2013-01-25 18:52:00,
2013-01-25 11:02:00,38.0,35.0,-100.00,South,180,11.0,21.0,89,-99.99,,,-99.99,,2013-01-25 19:02:00,
2013-01-25 11:12:00,38.0,33.0,-100.00,South,180,12.0,17.0,83,-99.99,,,-99.99,,2013-01-25 19:12:00,
2013-01-25 11:21:00,38.0,33.0,-100.00,South,180,12.0,17.0,83,-99.99,,,-99.99,,2013-01-25 19:21:00,
2013-01-25 11:32:00,38.0,35.0,-100.00,South,180,11.0,14.0,90,-99.99,,,-99.99,,2013-01-25 19:32:00,
2013-01-25 11:42:00,38.0,35.0,-100.00,North,-999,-999.0,-999.0,90,-99.99,,,-99.99,,2013-01-25 19:42:00,
2013-01-25 11:52:00,38.0,35.0,-100.00,North,-999,-999.0,-999.0,90,-99.99,,,-99.99,,2013-01-25 19:52:00,
2013-01-25 12:02:00,38.0,35.0,-100.00,South,180,9.0,15.0,90,-99.99,,,-99.99,,2013-01-25 20:02:00,
2013-01-25 12:12:00,38.0,35.0,-100.00,South,180,9.0,14.0,90,-99.99,,,-99.99,,2013-01-25 20:12:00,
2013-01-25 12:22:00,38.0,35.0,-100.00,South,180,9.0,14.0,90,-99.99,,,-99.99,,2013-01-25 20:22:00,
2013-01-25 12:32:00,38.0,32.0,-100.00,South,180,9.0,14.0,80,-99.99,,,-99.99,,2013-01-25 20:32:00,
2013-01-25 12:42:00,38.0,26.0,-100.00,SW,225,8.0,15.0,63,-99.99,,,-99.99,,2013-01-25 20:42:00,
2013-01-25 13:02:00,38.0,36.0,-100.00,South,180,8.0,14.0,91,-99.99,,,-99.99,,2013-01-25 21:02:00,
2013-01-25 13:11:00,38.0,35.0,-100.00,South,180,9.0,12.0,92,-99.99,,,-99.99,,2013-01-25 21:11:00,
2013-01-25 13:22:00,38.0,35.0,-100.00,South,180,9.0,12.0,92,-99.99,,,-99.99,,2013-01-25 21:22:00,
2013-01-25 13:32:00,37.0,35.0,-100.00,SW,225,8.0,11.0,92,-99.99,,,-99.99,,2013-01-25 21:32:00,
2013-01-25 13:42:00,37.0,35.0,-100.00,South,180,7.0,10.0,92,-99.99,,,-99.99,,2013-01-25 21:42:00,
2013-01-25 13:52:00,37.0,35.0,-100.00,South,180,7.0,10.0,92,-99.99,,,-99.99,,2013-01-25 21:52:00,
2013-01-25 14:02:00,37.0,35.0,-100.00,SW,225,7.0,11.0,92,-99.99,,,-99.99,,2013-01-25 22:02:00,
2013-01-25 14:11:00,36.0,35.0,-100.00,South,180,4.0,11.0,93,-99.99,,,-99.99,,2013-01-25 22:11:00,
2013-01-25 14:22:00,36.0,35.0,-100.00,South,180,4.0,11.0,93,-99.99,,,-99.99,,2013-01-25 22:22:00,
2013-01-25 14:32:00,36.0,34.0,-100.00,South,180,6.0,10.0,93,-99.99,,,-99.99,,2013-01-25 22:32:00,
2013-01-25 14:42:00,36.0,35.0,-100.00,SW,225,8.0,11.0,94,-99.99,,,-99.99,,2013-01-25 22:42:00,
2013-01-25 14:51:00,36.0,35.0,-100.00,SW,225,8.0,11.0,94,-99.99,,,-99.99,,2013-01-25 22:51:00,
2013-01-25 15:02:00,36.0,35.0,-100.00,SW,225,6.0,9.0,94,-99.99,,,-99.99,,2013-01-25 23:02:00,
2013-01-25 15:11:00,36.0,35.0,-100.00,South,180,9.0,15.0,94,-99.99,,,-99.99,,2013-01-25 23:11:00,
2013-01-25 15:22:00,36.0,35.0,-100.00,South,180,9.0,15.0,94,-99.99,,,-99.99,,2013-01-25 23:22:00,
2013-01-25 15:32:00,37.0,35.0,-100.00,SW,225,9.0,13.0,93,-99.99,,,-99.99,,2013-01-25 23:32:00,
2013-01-25 15:42:00,38.0,35.0,-100.00,South,180,9.0,13.0,91,-99.99,,,-99.99,,2013-01-25 23:42:00,
2013-01-25 15:52:00,38.0,35.0,-100.00,South,180,9.0,13.0,91,-99.99,,,-99.99,,2013-01-25 23:52:00,
2013-01-25 16:01:00,38.0,35.0,-100.00,South,180,10.0,13.0,89,-99.99,,,-99.99,,2013-01-26 00:01:00,
2013-01-25 16:11:00,38.0,35.0,-100.00,South,180,9.0,13.0,89,-99.99,,,-99.99,,2013-01-26 00:11:00,
2013-01-25 16:22:00,38.0,35.0,-100.00,South,180,9.0,13.0,89,-99.99,,,-99.99,,2013-01-26 00:22:00,
2013-01-25 16:32:00,38.0,32.0,-100.00,SW,225,9.0,14.0,80,-99.99,,,-99.99,,2013-01-26 00:32:00,
2013-01-25 16:42:00,38.0,35.0,-100.00,SW,225,9.0,12.0,91,-99.99,,,-99.99,,2013-01-26 00:42:00,
2013-01-25 16:52:00,38.0,35.0,-100.00,SW,225,9.0,12.0,91,-99.99,,,-99.99,,2013-01-26 00:52:00,
2013-01-25 17:01:00,37.0,35.0,-100.00,South,180,9.0,12.0,92,-99.99,,,-99.99,,2013-01-26 01:01:00,
2013-01-25 17:11:00,38.0,36.0,-100.00,South,180,8.0,13.0,92,-99.99,,,-99.99,,2013-01-26 01:11:00,
2013-01-25 17:22:00,38.0,36.0,-100.00,South,180,8.0,13.0,92,-99.99,,,-99.99,,2013-01-26 01:22:00,
2013-01-25 17:31:00,38.0,36.0,-100.00,South,180,8.0,12.0,92,-99.99,,,-99.99,,2013-01-26 01:31:00,
2013-01-25 17:42:00,38.0,35.0,-100.00,South,180,8.0,11.0,89,-99.99,,,-99.99,,2013-01-26 01:42:00,
2013-01-25 17:52:00,38.0,35.0,-100.00,South,180,8.0,11.0,89,-99.99,,,-99.99,,2013-01-26 01:52:00,
2013-01-25 18:01:00,38.0,35.0,-100.00,South,180,6.0,10.0,90,-99.99,,,-99.99,,2013-01-26 02:01:00,
2013-01-25 18:11:00,38.0,36.0,-100.00,South,180,6.0,9.0,91,-99.99,,,-99.99,,2013-01-26 02:11:00,
2013-01-25 18:22:00,38.0,36.0,-100.00,South,180,6.0,9.0,91,-99.99,,,-99.99,,2013-01-26 02:22:00,
2013-01-25 18:32:00,38.0,25.0,-100.00,South,180,9.0,12.0,59,-99.99,,,-99.99,,2013-01-26 02:32:00,
2013-01-25 18:42:00,37.0,35.0,-100.00,South,180,10.0,14.0,91,-99.99,,,-99.99,,2013-01-26 02:42:00,
2013-01-25 18:52:00,37.0,35.0,-100.00,South,180,10.0,14.0,91,-99.99,,,-99.99,,2013-01-26 02:52:00,
2013-01-25 19:01:00,38.0,22.0,-100.00,South,180,11.0,15.0,52,-99.99,,,-99.99,,2013-01-26 03:01:00,
2013-01-25 19:11:00,38.0,35.0,-100.00,South,180,9.0,15.0,89,-99.99,,,-99.99,,2013-01-26 03:11:00,
2013-01-25 19:21:00,38.0,35.0,-100.00,South,180,9.0,15.0,89,-99.99,,,-99.99,,2013-01-26 03:21:00,
2013-01-25 19:31:00,38.0,35.0,-100.00,SW,225,9.0,13.0,89,-99.99,,,-99.99,,2013-01-26 03:31:00,
2013-01-25 19:42:00,38.0,35.0,-100.00,South,180,10.0,13.0,89,-99.99,,,-99.99,,2013-01-26 03:42:00,
2013-01-25 19:51:00,38.0,35.0,-100.00,South,180,10.0,13.0,89,-99.99,,,-99.99,,2013-01-26 03:51:00,
2013-01-25 20:01:00,38.0,35.0,-100.00,South,180,9.0,12.0,89,-99.99,,,-99.99,,2013-01-26 04:01:00,
2013-01-25 20:12:00,38.0,35.0,-100.00,South,180,10.0,14.0,89,-99.99,,,-99.99,,2013-01-26 04:12:00,
2013-01-25 20:21:00,38.0,35.0,-100.00,South,180,10.0,14.0,89,-99.99,,,-99.99,,2013-01-26 04:21:00,
2013-01-25 20:32:00,38.0,35.0,-100.00,South,180,9.0,14.0,88,-99.99,,,-99.99,,2013-01-26 04:32:00,
2013-01-25 20:42:00,38.0,34.0,-100.00,South,180,9.0,12.0,84,-99.99,,,-99.99,,2013-01-26 04:42:00,
2013-01-25 20:52:00,38.0,34.0,-100.00,South,180,9.0,12.0,84,-99.99,,,-99.99,,2013-01-26 04:52:00,
2013-01-25 21:03:00,38.0,33.0,-100.00,SW,225,7.0,12.0,81,-99.99,,,-99.99,,2013-01-26 05:03:00,
2013-01-25 21:12:00,38.0,29.0,-100.00,South,180,9.0,12.0,71,-99.99,,,-99.99,,2013-01-26 05:12:00,
2013-01-25 21:23:00,38.0,29.0,-100.00,South,180,9.0,12.0,71,-99.99,,,-99.99,,2013-01-26 05:23:00,
2013-01-25 21:33:00,38.0,35.0,-100.00,South,180,7.0,14.0,88,-99.99,,,-99.99,,2013-01-26 05:33:00,
2013-01-25 21:41:00,38.0,35.0,-100.00,South,180,8.0,12.0,88,-99.99,,,-99.99,,2013-01-26 05:41:00,
2013-01-25 21:52:00,38.0,35.0,-100.00,South,180,8.0,12.0,88,-99.99,,,-99.99,,2013-01-26 05:52:00,
2013-01-25 22:02:00,38.0,34.0,-100.00,South,180,7.0,12.0,85,-99.99,,,-99.99,,2013-01-26 06:02:00,
2013-01-25 22:12:00,38.0,22.0,-100.00,South,180,8.0,12.0,52,-99.99,,,-99.99,,2013-01-26 06:12:00,
2013-01-25 22:21:00,38.0,22.0,-100.00,South,180,8.0,12.0,52,-99.99,,,-99.99,,2013-01-26 06:21:00,
2013-01-25 22:31:00,38.0,35.0,-100.00,South,180,8.0,11.0,87,-99.99,,,-99.99,,2013-01-26 06:31:00,
2013-01-25 22:41:00,38.0,35.0,-100.00,South,180,6.0,13.0,87,-99.99,,,-99.99,,2013-01-26 06:41:00,
2013-01-25 22:52:00,38.0,35.0,-100.00,South,180,6.0,13.0,87,-99.99,,,-99.99,,2013-01-26 06:52:00,
2013-01-25 23:01:00,38.0,35.0,-100.00,SW,225,6.0,10.0,88,-99.99,,,-99.99,,2013-01-26 07:01:00,
2013-01-25 23:12:00,38.0,35.0,-100.00,SW,225,6.0,14.0,88,-99.99,,,-99.99,,2013-01-26 07:12:00,
2013-01-25 23:21:00,38.0,35.0,-100.00,SW,225,6.0,14.0,88,-99.99,,,-99.99,,2013-01-26 07:21:00,
2013-01-25 23:33:00,38.0,35.0,-100.00,South,180,8.0,14.0,88,-99.99,,,-99.99,,2013-01-26 07:33:00,
2013-01-25 23:41:00,38.0,32.0,-100.00,South,180,9.0,12.0,79,-99.99,,,-99.99,,2013-01-26 07:41:00,
2013-01-25 23:51:00,38.0,32.0,-100.00,South,180,9.0,12.0,79,-99.99,,,-99.99,,2013-01-26 07:51:00,